sensor_id;sensor_type;location;lat;lon;timestamp;temperature;humidity
45319;DHT22;31057;48.498;32.260;2023-09-30T00:01:39;14.80;82.90
45319;DHT22;31057;48.498;32.260;2023-09-30T00:03:41;14.70;83.80
45319;DHT22;31057;48.498;32.260;2023-09-30T00:05:43;14.60;84.80
45319;DHT22;31057;48.498;32.260;2023-09-30T00:07:46;14.60;84.20
45319;DHT22;31057;48.498;32.260;2023-09-30T00:09:48;14.50;85.20
45319;DHT22;31057;48.498;32.260;2023-09-30T00:11:51;14.40;86.10
45319;DHT22;31057;48.498;32.260;2023-09-30T00:13:53;14.30;86.50
45319;DHT22;31057;48.498;32.260;2023-09-30T00:15:54;14.30;86.80
45319;DHT22;31057;48.498;32.260;2023-09-30T00:17:56;14.20;87.00
45319;DHT22;31057;48.498;32.260;2023-09-30T00:19:58;14.20;87.10
45319;DHT22;31057;48.498;32.260;2023-09-30T00:22:01;14.20;87.00
45319;DHT22;31057;48.498;32.260;2023-09-30T00:24:03;14.20;87.20
45319;DHT22;31057;48.498;32.260;2023-09-30T00:26:05;14.20;86.60
45319;DHT22;31057;48.498;32.260;2023-09-30T00:28:07;14.30;86.60
45319;DHT22;31057;48.498;32.260;2023-09-30T00:30:10;14.30;86.60
45319;DHT22;31057;48.498;32.260;2023-09-30T00:32:12;14.30;86.10
45319;DHT22;31057;48.498;32.260;2023-09-30T00:34:14;14.30;86.10
45319;DHT22;31057;48.498;32.260;2023-09-30T00:36:16;14.40;86.10
45319;DHT22;31057;48.498;32.260;2023-09-30T00:38:18;14.40;85.80
45319;DHT22;31057;48.498;32.260;2023-09-30T00:40:20;14.40;85.90
45319;DHT22;31057;48.498;32.260;2023-09-30T00:42:22;14.40;86.10
45319;DHT22;31057;48.498;32.260;2023-09-30T00:44:27;14.30;87.30
45319;DHT22;31057;48.498;32.260;2023-09-30T00:46:32;14.20;87.30
45319;DHT22;31057;48.498;32.260;2023-09-30T00:48:34;14.20;88.00
45319;DHT22;31057;48.498;32.260;2023-09-30T00:50:36;14.10;88.50
45319;DHT22;31057;48.498;32.260;2023-09-30T00:52:39;14.20;87.70
45319;DHT22;31057;48.498;32.260;2023-09-30T00:54:42;14.20;87.60
45319;DHT22;31057;48.498;32.260;2023-09-30T00:56:46;14.20;87.70
45319;DHT22;31057;48.498;32.260;2023-09-30T00:58:48;14.20;88.60
45319;DHT22;31057;48.498;32.260;2023-09-30T01:00:54;14.10;88.10
45319;DHT22;31057;48.498;32.260;2023-09-30T01:02:57;14.10;88.70
45319;DHT22;31057;48.498;32.260;2023-09-30T01:05:06;14.00;90.00
45319;DHT22;31057;48.498;32.260;2023-09-30T01:07:09;13.90;90.20
45319;DHT22;31057;48.498;32.260;2023-09-30T01:09:11;13.90;90.40
45319;DHT22;31057;48.498;32.260;2023-09-30T01:11:14;13.80;90.20
45319;DHT22;31057;48.498;32.260;2023-09-30T01:13:17;13.80;89.80
45319;DHT22;31057;48.498;32.260;2023-09-30T01:15:19;13.90;90.00
45319;DHT22;31057;48.498;32.260;2023-09-30T01:17:21;13.90;89.90
45319;DHT22;31057;48.498;32.260;2023-09-30T01:19:24;13.90;90.00
45319;DHT22;31057;48.498;32.260;2023-09-30T01:21:27;13.80;90.20
45319;DHT22;31057;48.498;32.260;2023-09-30T01:23:33;13.70;90.30
45319;DHT22;31057;48.498;32.260;2023-09-30T01:25:35;13.70;90.50
45319;DHT22;31057;48.498;32.260;2023-09-30T01:27:40;13.70;90.60
45319;DHT22;31057;48.498;32.260;2023-09-30T01:29:42;13.70;90.70
45319;DHT22;31057;48.498;32.260;2023-09-30T01:31:44;13.80;90.80
45319;DHT22;31057;48.498;32.260;2023-09-30T01:33:49;13.80;90.90
45319;DHT22;31057;48.498;32.260;2023-09-30T01:35:56;13.80;91.00
45319;DHT22;31057;48.498;32.260;2023-09-30T01:37:58;13.80;91.20
45319;DHT22;31057;48.498;32.260;2023-09-30T01:40:00;13.70;91.30
45319;DHT22;31057;48.498;32.260;2023-09-30T01:42:02;13.70;91.60
45319;DHT22;31057;48.498;32.260;2023-09-30T01:44:04;13.60;91.70
45319;DHT22;31057;48.498;32.260;2023-09-30T01:46:06;13.60;91.80
45319;DHT22;31057;48.498;32.260;2023-09-30T01:48:09;13.70;91.80
45319;DHT22;31057;48.498;32.260;2023-09-30T01:50:13;13.70;91.90
45319;DHT22;31057;48.498;32.260;2023-09-30T01:52:15;13.60;92.10
45319;DHT22;31057;48.498;32.260;2023-09-30T01:54:17;13.70;92.10
45319;DHT22;31057;48.498;32.260;2023-09-30T01:56:19;13.70;92.00
45319;DHT22;31057;48.498;32.260;2023-09-30T01:58:21;13.60;92.10
45319;DHT22;31057;48.498;32.260;2023-09-30T02:00:23;13.60;92.10
45319;DHT22;31057;48.498;32.260;2023-09-30T02:02:25;13.50;92.70
45319;DHT22;31057;48.498;32.260;2023-09-30T02:04:28;13.50;92.40
45319;DHT22;31057;48.498;32.260;2023-09-30T02:06:31;13.60;92.50
45319;DHT22;31057;48.498;32.260;2023-09-30T02:08:33;13.60;92.40
45319;DHT22;31057;48.498;32.260;2023-09-30T02:10:36;13.60;92.60
45319;DHT22;31057;48.498;32.260;2023-09-30T02:12:38;13.50;92.70
45319;DHT22;31057;48.498;32.260;2023-09-30T02:14:40;13.50;92.90
45319;DHT22;31057;48.498;32.260;2023-09-30T02:16:42;13.50;92.90
45319;DHT22;31057;48.498;32.260;2023-09-30T02:18:44;13.60;92.90
45319;DHT22;31057;48.498;32.260;2023-09-30T02:20:47;13.50;92.90
45319;DHT22;31057;48.498;32.260;2023-09-30T02:22:49;13.50;93.00
45319;DHT22;31057;48.498;32.260;2023-09-30T02:24:51;13.50;93.00
45319;DHT22;31057;48.498;32.260;2023-09-30T02:26:53;13.50;93.10
45319;DHT22;31057;48.498;32.260;2023-09-30T02:28:54;13.50;93.20
45319;DHT22;31057;48.498;32.260;2023-09-30T02:30:58;13.50;93.20
45319;DHT22;31057;48.498;32.260;2023-09-30T02:33:01;13.50;93.50
45319;DHT22;31057;48.498;32.260;2023-09-30T02:35:03;13.50;93.50
45319;DHT22;31057;48.498;32.260;2023-09-30T02:37:08;13.50;93.50
45319;DHT22;31057;48.498;32.260;2023-09-30T02:39:12;13.40;93.60
45319;DHT22;31057;48.498;32.260;2023-09-30T02:41:15;13.40;93.90
45319;DHT22;31057;48.498;32.260;2023-09-30T02:43:17;13.40;93.90
45319;DHT22;31057;48.498;32.260;2023-09-30T02:45:19;13.30;94.20
45319;DHT22;31057;48.498;32.260;2023-09-30T02:47:21;13.30;94.30
45319;DHT22;31057;48.498;32.260;2023-09-30T02:49:23;13.30;94.30
45319;DHT22;31057;48.498;32.260;2023-09-30T02:51:25;13.30;94.50
45319;DHT22;31057;48.498;32.260;2023-09-30T02:53:27;13.20;94.70
45319;DHT22;31057;48.498;32.260;2023-09-30T02:55:30;13.20;94.80
45319;DHT22;31057;48.498;32.260;2023-09-30T02:57:32;13.10;94.90
45319;DHT22;31057;48.498;32.260;2023-09-30T02:59:35;13.20;94.90
45319;DHT22;31057;48.498;32.260;2023-09-30T03:01:37;13.10;95.20
45319;DHT22;31057;48.498;32.260;2023-09-30T03:03:40;13.10;95.20
45319;DHT22;31057;48.498;32.260;2023-09-30T03:05:42;13.10;95.70
45319;DHT22;31057;48.498;32.260;2023-09-30T03:07:44;13.00;95.80
45319;DHT22;31057;48.498;32.260;2023-09-30T03:09:47;13.00;95.80
45319;DHT22;31057;48.498;32.260;2023-09-30T03:11:49;13.00;96.10
45319;DHT22;31057;48.498;32.260;2023-09-30T03:13:51;12.90;96.40
45319;DHT22;31057;48.498;32.260;2023-09-30T03:15:53;12.90;96.90
45319;DHT22;31057;48.498;32.260;2023-09-30T03:17:55;12.80;97.20
45319;DHT22;31057;48.498;32.260;2023-09-30T03:19:57;12.70;97.40
45319;DHT22;31057;48.498;32.260;2023-09-30T03:21:59;12.80;97.50
45319;DHT22;31057;48.498;32.260;2023-09-30T03:24:06;12.80;97.60
45319;DHT22;31057;48.498;32.260;2023-09-30T03:26:10;12.80;97.60
45319;DHT22;31057;48.498;32.260;2023-09-30T03:28:12;12.80;97.80
45319;DHT22;31057;48.498;32.260;2023-09-30T03:30:14;12.80;97.90
45319;DHT22;31057;48.498;32.260;2023-09-30T03:32:18;12.70;98.30
45319;DHT22;31057;48.498;32.260;2023-09-30T03:34:20;12.70;98.60
45319;DHT22;31057;48.498;32.260;2023-09-30T03:36:22;12.60;98.90
45319;DHT22;31057;48.498;32.260;2023-09-30T03:38:26;12.60;98.90
45319;DHT22;31057;48.498;32.260;2023-09-30T03:40:28;12.70;99.10
45319;DHT22;31057;48.498;32.260;2023-09-30T03:42:35;12.70;99.10
45319;DHT22;31057;48.498;32.260;2023-09-30T03:44:38;12.70;99.40
45319;DHT22;31057;48.498;32.260;2023-09-30T03:46:40;12.70;99.50
45319;DHT22;31057;48.498;32.260;2023-09-30T03:48:43;12.70;99.70
45319;DHT22;31057;48.498;32.260;2023-09-30T03:50:46;12.70;99.70
45319;DHT22;31057;48.498;32.260;2023-09-30T03:52:48;12.70;99.80
45319;DHT22;31057;48.498;32.260;2023-09-30T03:54:51;12.80;99.80
45319;DHT22;31057;48.498;32.260;2023-09-30T03:56:54;12.70;99.70
45319;DHT22;31057;48.498;32.260;2023-09-30T03:58:56;12.70;99.80
45319;DHT22;31057;48.498;32.260;2023-09-30T04:00:59;12.70;99.90
45319;DHT22;31057;48.498;32.260;2023-09-30T04:03:06;12.60;99.90
45319;DHT22;31057;48.498;32.260;2023-09-30T04:05:08;12.60;99.90
45319;DHT22;31057;48.498;32.260;2023-09-30T04:07:13;12.80;99.90
45319;DHT22;31057;48.498;32.260;2023-09-30T04:09:15;12.70;99.90
45319;DHT22;31057;48.498;32.260;2023-09-30T04:11:18;12.60;99.90
45319;DHT22;31057;48.498;32.260;2023-09-30T04:13:20;12.70;99.90
45319;DHT22;31057;48.498;32.260;2023-09-30T04:15:23;12.70;99.90
45319;DHT22;31057;48.498;32.260;2023-09-30T04:17:25;12.70;99.90
45319;DHT22;31057;48.498;32.260;2023-09-30T04:19:28;12.80;99.90
45319;DHT22;31057;48.498;32.260;2023-09-30T04:21:32;12.80;99.90
45319;DHT22;31057;48.498;32.260;2023-09-30T04:23:36;12.80;99.90
45319;DHT22;31057;48.498;32.260;2023-09-30T04:25:38;12.80;99.90
45319;DHT22;31057;48.498;32.260;2023-09-30T04:27:40;12.80;99.90
45319;DHT22;31057;48.498;32.260;2023-09-30T04:29:43;12.80;99.90
45319;DHT22;31057;48.498;32.260;2023-09-30T04:31:45;12.90;99.90
45319;DHT22;31057;48.498;32.260;2023-09-30T04:33:51;13.00;99.90
45319;DHT22;31057;48.498;32.260;2023-09-30T04:35:54;13.00;99.90
45319;DHT22;31057;48.498;32.260;2023-09-30T04:37:57;13.20;99.90
45319;DHT22;31057;48.498;32.260;2023-09-30T04:40:08;13.30;99.90
45319;DHT22;31057;48.498;32.260;2023-09-30T04:42:22;13.50;99.20
45319;DHT22;31057;48.498;32.260;2023-09-30T04:44:27;13.30;99.70
45319;DHT22;31057;48.498;32.260;2023-09-30T04:46:32;13.30;99.80
45319;DHT22;31057;48.498;32.260;2023-09-30T04:48:35;13.50;99.40
45319;DHT22;31057;48.498;32.260;2023-09-30T04:50:38;13.60;99.00
45319;DHT22;31057;48.498;32.260;2023-09-30T04:52:40;13.70;98.80
45319;DHT22;31057;48.498;32.260;2023-09-30T04:54:42;13.90;98.40
45319;DHT22;31057;48.498;32.260;2023-09-30T04:56:46;13.90;98.20
45319;DHT22;31057;48.498;32.260;2023-09-30T04:58:49;14.10;97.80
45319;DHT22;31057;48.498;32.260;2023-09-30T05:00:50;14.10;97.50
45319;DHT22;31057;48.498;32.260;2023-09-30T05:02:52;14.20;97.30
45319;DHT22;31057;48.498;32.260;2023-09-30T05:04:56;14.40;97.20
45319;DHT22;31057;48.498;32.260;2023-09-30T05:06:58;14.60;96.70
45319;DHT22;31057;48.498;32.260;2023-09-30T05:09:00;14.60;96.50
45319;DHT22;31057;48.498;32.260;2023-09-30T05:11:02;14.60;96.40
45319;DHT22;31057;48.498;32.260;2023-09-30T05:13:03;14.70;96.50
45319;DHT22;31057;48.498;32.260;2023-09-30T05:15:06;14.90;96.00
45319;DHT22;31057;48.498;32.260;2023-09-30T05:17:08;14.80;95.80
45319;DHT22;31057;48.498;32.260;2023-09-30T05:19:10;15.10;95.50
45319;DHT22;31057;48.498;32.260;2023-09-30T05:21:12;15.30;95.30
45319;DHT22;31057;48.498;32.260;2023-09-30T05:23:14;15.40;94.80
45319;DHT22;31057;48.498;32.260;2023-09-30T05:25:16;15.50;94.60
45319;DHT22;31057;48.498;32.260;2023-09-30T05:27:19;15.60;94.60
45319;DHT22;31057;48.498;32.260;2023-09-30T05:29:22;15.80;94.00
45319;DHT22;31057;48.498;32.260;2023-09-30T05:31:24;16.00;93.80
45319;DHT22;31057;48.498;32.260;2023-09-30T05:33:29;16.10;93.50
45319;DHT22;31057;48.498;32.260;2023-09-30T05:35:32;16.30;93.50
45319;DHT22;31057;48.498;32.260;2023-09-30T05:37:34;16.40;93.20
45319;DHT22;31057;48.498;32.260;2023-09-30T05:39:36;16.50;93.10
45319;DHT22;31057;48.498;32.260;2023-09-30T05:41:39;16.40;92.90
45319;DHT22;31057;48.498;32.260;2023-09-30T05:43:41;16.50;93.10
45319;DHT22;31057;48.498;32.260;2023-09-30T05:45:45;16.60;93.00
45319;DHT22;31057;48.498;32.260;2023-09-30T05:47:52;16.70;92.90
45319;DHT22;31057;48.498;32.260;2023-09-30T05:49:55;16.80;92.50
45319;DHT22;31057;48.498;32.260;2023-09-30T05:51:57;16.90;92.20
45319;DHT22;31057;48.498;32.260;2023-09-30T05:53:59;16.90;92.20
45319;DHT22;31057;48.498;32.260;2023-09-30T05:56:01;16.90;92.20
45319;DHT22;31057;48.498;32.260;2023-09-30T05:58:05;16.90;92.00
45319;DHT22;31057;48.498;32.260;2023-09-30T06:00:11;17.00;92.20
45319;DHT22;31057;48.498;32.260;2023-09-30T06:02:16;17.20;92.10
45319;DHT22;31057;48.498;32.260;2023-09-30T06:04:18;17.30;91.80
45319;DHT22;31057;48.498;32.260;2023-09-30T06:06:20;17.50;91.30
45319;DHT22;31057;48.498;32.260;2023-09-30T06:08:22;17.50;91.40
45319;DHT22;31057;48.498;32.260;2023-09-30T06:10:24;17.70;91.40
45319;DHT22;31057;48.498;32.260;2023-09-30T06:12:27;17.80;91.50
45319;DHT22;31057;48.498;32.260;2023-09-30T06:14:29;17.90;91.20
45319;DHT22;31057;48.498;32.260;2023-09-30T06:16:33;18.10;91.20
45319;DHT22;31057;48.498;32.260;2023-09-30T06:18:36;18.10;91.10
45319;DHT22;31057;48.498;32.260;2023-09-30T06:20:39;18.20;90.50
45319;DHT22;31057;48.498;32.260;2023-09-30T06:22:41;18.30;90.30
45319;DHT22;31057;48.498;32.260;2023-09-30T06:24:43;18.40;90.30
45319;DHT22;31057;48.498;32.260;2023-09-30T06:26:45;18.50;88.70
45319;DHT22;31057;48.498;32.260;2023-09-30T06:28:47;18.60;88.00
45319;DHT22;31057;48.498;32.260;2023-09-30T06:30:49;18.70;87.60
45319;DHT22;31057;48.498;32.260;2023-09-30T06:32:52;18.80;86.90
45319;DHT22;31057;48.498;32.260;2023-09-30T06:34:55;18.90;86.30
45319;DHT22;31057;48.498;32.260;2023-09-30T06:36:57;19.00;85.90
45319;DHT22;31057;48.498;32.260;2023-09-30T06:38:59;19.10;86.00
45319;DHT22;31057;48.498;32.260;2023-09-30T06:41:01;19.20;86.10
45319;DHT22;31057;48.498;32.260;2023-09-30T06:43:03;19.30;85.40
45319;DHT22;31057;48.498;32.260;2023-09-30T06:45:05;19.40;84.30
45319;DHT22;31057;48.498;32.260;2023-09-30T06:47:08;19.50;84.10
45319;DHT22;31057;48.498;32.260;2023-09-30T06:49:13;19.60;83.60
45319;DHT22;31057;48.498;32.260;2023-09-30T06:51:16;19.70;82.50
45319;DHT22;31057;48.498;32.260;2023-09-30T06:53:19;19.70;81.60
45319;DHT22;31057;48.498;32.260;2023-09-30T06:55:23;19.70;81.50
45319;DHT22;31057;48.498;32.260;2023-09-30T06:57:26;19.90;81.60
45319;DHT22;31057;48.498;32.260;2023-09-30T06:59:28;20.00;81.40
45319;DHT22;31057;48.498;32.260;2023-09-30T07:01:31;20.00;79.90
45319;DHT22;31057;48.498;32.260;2023-09-30T07:03:33;20.20;79.90
45319;DHT22;31057;48.498;32.260;2023-09-30T07:05:39;20.30;79.90
45319;DHT22;31057;48.498;32.260;2023-09-30T07:07:42;20.40;78.70
45319;DHT22;31057;48.498;32.260;2023-09-30T07:09:47;20.40;78.50
45319;DHT22;31057;48.498;32.260;2023-09-30T07:11:49;20.50;78.20
45319;DHT22;31057;48.498;32.260;2023-09-30T07:13:51;20.50;78.00
45319;DHT22;31057;48.498;32.260;2023-09-30T07:15:53;20.60;78.80
45319;DHT22;31057;48.498;32.260;2023-09-30T07:17:55;20.70;78.00
45319;DHT22;31057;48.498;32.260;2023-09-30T07:19:57;20.80;77.40
45319;DHT22;31057;48.498;32.260;2023-09-30T07:21:59;20.90;77.00
45319;DHT22;31057;48.498;32.260;2023-09-30T07:24:06;20.90;77.60
45319;DHT22;31057;48.498;32.260;2023-09-30T07:26:08;21.10;77.40
45319;DHT22;31057;48.498;32.260;2023-09-30T07:28:10;21.20;75.90
45319;DHT22;31057;48.498;32.260;2023-09-30T07:30:14;21.30;75.90
45319;DHT22;31057;48.498;32.260;2023-09-30T07:32:20;21.50;74.80
45319;DHT22;31057;48.498;32.260;2023-09-30T07:34:25;21.70;74.00
45319;DHT22;31057;48.498;32.260;2023-09-30T07:36:27;21.70;73.30
45319;DHT22;31057;48.498;32.260;2023-09-30T07:38:29;21.70;73.20
45319;DHT22;31057;48.498;32.260;2023-09-30T07:40:31;21.80;72.50
45319;DHT22;31057;48.498;32.260;2023-09-30T07:42:37;21.90;72.70
45319;DHT22;31057;48.498;32.260;2023-09-30T07:44:39;22.10;70.80
45319;DHT22;31057;48.498;32.260;2023-09-30T07:46:41;22.10;68.30
45319;DHT22;31057;48.498;32.260;2023-09-30T07:48:43;22.20;68.20
45319;DHT22;31057;48.498;32.260;2023-09-30T07:50:45;22.30;68.70
45319;DHT22;31057;48.498;32.260;2023-09-30T07:52:48;22.30;69.00
45319;DHT22;31057;48.498;32.260;2023-09-30T07:54:50;22.40;68.80
45319;DHT22;31057;48.498;32.260;2023-09-30T07:56:52;22.50;67.20
45319;DHT22;31057;48.498;32.260;2023-09-30T07:58:55;22.60;67.40
45319;DHT22;31057;48.498;32.260;2023-09-30T08:00:57;22.70;65.70
45319;DHT22;31057;48.498;32.260;2023-09-30T08:02:59;22.80;66.00
45319;DHT22;31057;48.498;32.260;2023-09-30T08:05:06;22.90;66.80
45319;DHT22;31057;48.498;32.260;2023-09-30T08:07:08;23.00;64.30
45319;DHT22;31057;48.498;32.260;2023-09-30T08:09:14;23.00;64.00
45319;DHT22;31057;48.498;32.260;2023-09-30T08:11:18;23.10;63.20
45319;DHT22;31057;48.498;32.260;2023-09-30T08:13:23;23.00;62.20
45319;DHT22;31057;48.498;32.260;2023-09-30T08:15:25;23.20;62.00
45319;DHT22;31057;48.498;32.260;2023-09-30T08:17:27;23.40;62.90
45319;DHT22;31057;48.498;32.260;2023-09-30T08:19:29;23.50;62.20
45319;DHT22;31057;48.498;32.260;2023-09-30T08:21:31;23.60;61.40
45319;DHT22;31057;48.498;32.260;2023-09-30T08:23:33;23.70;61.80
45319;DHT22;31057;48.498;32.260;2023-09-30T08:25:35;23.80;62.10
45319;DHT22;31057;48.498;32.260;2023-09-30T08:27:37;23.80;60.60
45319;DHT22;31057;48.498;32.260;2023-09-30T08:29:40;24.00;59.80
45319;DHT22;31057;48.498;32.260;2023-09-30T08:31:42;24.10;59.50
45319;DHT22;31057;48.498;32.260;2023-09-30T08:33:45;24.10;59.30
45319;DHT22;31057;48.498;32.260;2023-09-30T08:35:47;23.90;59.50
45319;DHT22;31057;48.498;32.260;2023-09-30T08:37:52;23.70;59.20
45319;DHT22;31057;48.498;32.260;2023-09-30T08:39:54;23.80;56.80
45319;DHT22;31057;48.498;32.260;2023-09-30T08:41:56;23.90;57.60
45319;DHT22;31057;48.498;32.260;2023-09-30T08:44:02;24.00;56.00
45319;DHT22;31057;48.498;32.260;2023-09-30T08:46:05;23.90;55.20
45319;DHT22;31057;48.498;32.260;2023-09-30T08:48:08;23.90;55.70
45319;DHT22;31057;48.498;32.260;2023-09-30T08:50:10;24.20;56.70
45319;DHT22;31057;48.498;32.260;2023-09-30T08:52:13;24.40;56.10
45319;DHT22;31057;48.498;32.260;2023-09-30T08:54:16;24.30;55.40
45319;DHT22;31057;48.498;32.260;2023-09-30T08:56:24;24.00;55.30
45319;DHT22;31057;48.498;32.260;2023-09-30T08:58:28;23.90;55.30
45319;DHT22;31057;48.498;32.260;2023-09-30T09:00:34;24.00;55.90
45319;DHT22;31057;48.498;32.260;2023-09-30T09:02:36;24.00;55.80
45319;DHT22;31057;48.498;32.260;2023-09-30T09:04:38;24.10;55.50
45319;DHT22;31057;48.498;32.260;2023-09-30T09:06:40;24.30;56.20
45319;DHT22;31057;48.498;32.260;2023-09-30T09:08:43;24.50;54.90
45319;DHT22;31057;48.498;32.260;2023-09-30T09:10:58;24.60;54.70
45319;DHT22;31057;48.498;32.260;2023-09-30T09:13:01;24.50;53.80
45319;DHT22;31057;48.498;32.260;2023-09-30T09:15:05;24.50;54.30
45319;DHT22;31057;48.498;32.260;2023-09-30T09:17:10;24.80;55.10
45319;DHT22;31057;48.498;32.260;2023-09-30T09:19:13;25.00;54.70
45319;DHT22;31057;48.498;32.260;2023-09-30T09:21:19;25.10;53.20
45319;DHT22;31057;48.498;32.260;2023-09-30T09:23:22;24.90;53.30
45319;DHT22;31057;48.498;32.260;2023-09-30T09:25:25;25.00;53.90
45319;DHT22;31057;48.498;32.260;2023-09-30T09:27:27;24.90;52.80
45319;DHT22;31057;48.498;32.260;2023-09-30T09:29:29;24.80;52.30
45319;DHT22;31057;48.498;32.260;2023-09-30T09:31:32;24.60;52.50
45319;DHT22;31057;48.498;32.260;2023-09-30T09:33:36;24.80;53.50
45319;DHT22;31057;48.498;32.260;2023-09-30T09:35:48;25.10;53.00
45319;DHT22;31057;48.498;32.260;2023-09-30T09:40:01;25.40;52.50
45319;DHT22;31057;48.498;32.260;2023-09-30T09:42:05;25.30;51.80
45319;DHT22;31057;48.498;32.260;2023-09-30T09:44:08;24.70;52.00
45319;DHT22;31057;48.498;32.260;2023-09-30T09:46:11;24.60;53.10
45319;DHT22;31057;48.498;32.260;2023-09-30T09:48:13;24.50;52.70
45319;DHT22;31057;48.498;32.260;2023-09-30T09:50:17;24.40;53.50
45319;DHT22;31057;48.498;32.260;2023-09-30T09:52:20;24.30;54.00
45319;DHT22;31057;48.498;32.260;2023-09-30T09:54:22;24.20;52.60
45319;DHT22;31057;48.498;32.260;2023-09-30T09:56:26;24.10;52.70
45319;DHT22;31057;48.498;32.260;2023-09-30T09:58:32;24.40;53.60
45319;DHT22;31057;48.498;32.260;2023-09-30T10:00:35;24.60;53.40
45319;DHT22;31057;48.498;32.260;2023-09-30T10:02:40;25.00;52.20
45319;DHT22;31057;48.498;32.260;2023-09-30T10:04:46;25.10;51.60
45319;DHT22;31057;48.498;32.260;2023-09-30T10:06:52;24.80;52.20
45319;DHT22;31057;48.498;32.260;2023-09-30T10:08:55;24.80;52.40
45319;DHT22;31057;48.498;32.260;2023-09-30T10:10:59;24.80;51.50
45319;DHT22;31057;48.498;32.260;2023-09-30T10:13:03;24.90;51.40
45319;DHT22;31057;48.498;32.260;2023-09-30T10:20:05;24.90;51.10
45319;DHT22;31057;48.498;32.260;2023-09-30T10:26:25;24.80;50.20
45319;DHT22;31057;48.498;32.260;2023-09-30T10:30:35;24.90;50.20
45319;DHT22;31057;48.498;32.260;2023-09-30T10:34:55;25.10;49.80
45319;DHT22;31057;48.498;32.260;2023-09-30T10:36:58;25.00;49.10
45319;DHT22;31057;48.498;32.260;2023-09-30T10:39:58;24.80;49.30
45319;DHT22;31057;48.498;32.260;2023-09-30T10:42:01;24.90;49.10
45319;DHT22;31057;48.498;32.260;2023-09-30T10:50:49;25.10;49.40
45319;DHT22;31057;48.498;32.260;2023-09-30T10:52:52;25.10;48.80
45319;DHT22;31057;48.498;32.260;2023-09-30T10:55:02;25.10;48.50
45319;DHT22;31057;48.498;32.260;2023-09-30T10:57:04;25.10;48.70
45319;DHT22;31057;48.498;32.260;2023-09-30T10:59:06;25.10;48.40
45319;DHT22;31057;48.498;32.260;2023-09-30T11:01:09;25.00;48.40
45319;DHT22;31057;48.498;32.260;2023-09-30T11:03:11;25.20;48.60
45319;DHT22;31057;48.498;32.260;2023-09-30T11:05:14;25.40;48.00
45319;DHT22;31057;48.498;32.260;2023-09-30T11:07:22;25.50;49.20
45319;DHT22;31057;48.498;32.260;2023-09-30T11:09:25;25.70;48.10
45319;DHT22;31057;48.498;32.260;2023-09-30T11:11:38;25.60;46.90
45319;DHT22;31057;48.498;32.260;2023-09-30T11:13:41;25.30;47.10
45319;DHT22;31057;48.498;32.260;2023-09-30T11:15:44;25.40;47.10
45319;DHT22;31057;48.498;32.260;2023-09-30T11:17:46;25.50;47.50
45319;DHT22;31057;48.498;32.260;2023-09-30T11:19:48;25.60;47.70
45319;DHT22;31057;48.498;32.260;2023-09-30T11:21:54;25.80;46.20
45319;DHT22;31057;48.498;32.260;2023-09-30T11:24:01;25.80;45.80
45319;DHT22;31057;48.498;32.260;2023-09-30T11:26:04;25.60;45.40
45319;DHT22;31057;48.498;32.260;2023-09-30T11:28:16;25.50;46.10
45319;DHT22;31057;48.498;32.260;2023-09-30T11:30:18;25.30;46.30
45319;DHT22;31057;48.498;32.260;2023-09-30T11:32:28;25.10;46.00
45319;DHT22;31057;48.498;32.260;2023-09-30T11:34:35;25.30;46.50
45319;DHT22;31057;48.498;32.260;2023-09-30T11:36:39;25.20;46.30
45319;DHT22;31057;48.498;32.260;2023-09-30T11:38:45;25.40;46.90
45319;DHT22;31057;48.498;32.260;2023-09-30T11:41:06;25.50;46.40
45319;DHT22;31057;48.498;32.260;2023-09-30T11:43:09;25.40;45.80
45319;DHT22;31057;48.498;32.260;2023-09-30T11:45:21;25.30;45.30
45319;DHT22;31057;48.498;32.260;2023-09-30T11:47:29;25.10;45.50
45319;DHT22;31057;48.498;32.260;2023-09-30T11:49:34;25.30;45.70
45319;DHT22;31057;48.498;32.260;2023-09-30T11:51:43;25.40;45.40
45319;DHT22;31057;48.498;32.260;2023-09-30T11:53:49;25.40;44.20
45319;DHT22;31057;48.498;32.260;2023-09-30T11:55:52;25.50;44.00
45319;DHT22;31057;48.498;32.260;2023-09-30T11:57:57;25.40;44.60
45319;DHT22;31057;48.498;32.260;2023-09-30T12:00:00;25.80;44.70
45319;DHT22;31057;48.498;32.260;2023-09-30T12:02:03;25.80;44.70
45319;DHT22;31057;48.498;32.260;2023-09-30T12:04:15;25.80;44.90
45319;DHT22;31057;48.498;32.260;2023-09-30T12:06:20;25.80;45.10
45319;DHT22;31057;48.498;32.260;2023-09-30T12:08:23;25.90;45.40
45319;DHT22;31057;48.498;32.260;2023-09-30T12:10:25;25.80;45.10
45319;DHT22;31057;48.498;32.260;2023-09-30T12:12:27;25.80;45.50
45319;DHT22;31057;48.498;32.260;2023-09-30T12:14:30;25.80;44.50
45319;DHT22;31057;48.498;32.260;2023-09-30T12:16:34;25.70;43.80
45319;DHT22;31057;48.498;32.260;2023-09-30T12:18:36;25.60;43.40
45319;DHT22;31057;48.498;32.260;2023-09-30T12:20:40;25.60;44.10
45319;DHT22;31057;48.498;32.260;2023-09-30T12:22:43;25.70;44.10
45319;DHT22;31057;48.498;32.260;2023-09-30T12:24:45;25.60;43.80
45319;DHT22;31057;48.498;32.260;2023-09-30T12:26:49;25.80;45.10
45319;DHT22;31057;48.498;32.260;2023-09-30T12:28:51;25.50;43.10
45319;DHT22;31057;48.498;32.260;2023-09-30T12:30:54;25.50;43.20
45319;DHT22;31057;48.498;32.260;2023-09-30T12:32:56;25.50;43.90
45319;DHT22;31057;48.498;32.260;2023-09-30T12:34:58;25.50;43.40
45319;DHT22;31057;48.498;32.260;2023-09-30T12:37:00;25.50;43.50
45319;DHT22;31057;48.498;32.260;2023-09-30T12:39:03;25.50;43.60
45319;DHT22;31057;48.498;32.260;2023-09-30T12:41:13;25.50;43.60
45319;DHT22;31057;48.498;32.260;2023-09-30T12:43:15;25.50;43.10
45319;DHT22;31057;48.498;32.260;2023-09-30T12:45:17;25.40;43.50
45319;DHT22;31057;48.498;32.260;2023-09-30T12:47:19;25.40;43.90
45319;DHT22;31057;48.498;32.260;2023-09-30T12:49:21;25.50;43.60
45319;DHT22;31057;48.498;32.260;2023-09-30T12:51:23;25.60;43.80
45319;DHT22;31057;48.498;32.260;2023-09-30T12:53:26;25.60;43.90
45319;DHT22;31057;48.498;32.260;2023-09-30T12:55:28;25.60;43.70
45319;DHT22;31057;48.498;32.260;2023-09-30T12:57:31;25.80;44.60
45319;DHT22;31057;48.498;32.260;2023-09-30T12:59:33;25.80;44.10
45319;DHT22;31057;48.498;32.260;2023-09-30T13:01:36;25.70;42.80
45319;DHT22;31057;48.498;32.260;2023-09-30T13:03:38;25.70;43.40
45319;DHT22;31057;48.498;32.260;2023-09-30T13:05:40;25.80;43.60
45319;DHT22;31057;48.498;32.260;2023-09-30T13:07:45;25.70;42.30
45319;DHT22;31057;48.498;32.260;2023-09-30T13:09:48;25.70;43.30